Time;durP1;ratioP1;P1;durP2;ratioP2;P2;SDS_P1;SDS_P2;PMS_P1;PMS_P2;Temp;Humidity;BMP_temperature;BMP_pressure;BME280_temperature;BME280_humidity;BME280_pressure;Samples;Min_cycle;Max_cycle;Signal;HPM_P1;HPM_P2
2022/09/05 00:02:02;;;;;;;6.15;3.10;;;18.90;99.90;;;;;;5005692;28;20185;-70
2022/09/05 00:05:05;;;;;;;7.60;3.05;;;18.80;99.90;;;;;;5007706;28;20038;-70
2022/09/05 00:07:58;;;;;;;4.80;2.95;;;18.80;99.90;;;;;;5009090;28;20373;-70
2022/09/05 00:10:34;;;;;;;3.95;2.85;;;18.70;99.90;;;;;;5011323;28;20041;-70
2022/09/05 00:13:03;;;;;;;4.85;2.83;;;18.70;99.90;;;;;;5008668;28;20037;-70
2022/09/05 00:15:50;;;;;;;3.40;2.88;;;18.70;99.90;;;;;;5015613;28;20046;-70
2022/09/05 00:18:33;;;;;;;4.70;2.97;;;18.60;99.90;;;;;;5010298;28;20033;-70
2022/09/05 00:21:05;;;;;;;5.68;2.92;;;18.60;99.90;;;;;;5014923;28;20443;-70
2022/09/05 00:23:46;;;;;;;5.70;2.97;;;18.60;99.90;;;;;;5009306;28;20045;-70
2022/09/05 00:27:01;;;;;;;5.82;3.55;;;18.50;99.90;;;;;;5010441;28;20304;-70
2022/09/05 00:29:49;;;;;;;5.00;2.95;;;18.50;99.90;;;;;;4972770;28;20052;-70
2022/09/05 00:32:41;;;;;;;4.20;2.70;;;18.50;99.90;;;;;;5011584;28;20042;-70
2022/09/05 00:35:29;;;;;;;5.10;3.23;;;18.40;99.90;;;;;;5010820;28;20088;-70
2022/09/05 00:37:56;;;;;;;3.05;2.75;;;18.40;99.90;;;;;;5011973;28;20041;-70
2022/09/05 00:40:38;;;;;;;3.92;2.90;;;18.30;99.90;;;;;;5009019;28;20033;-70
2022/09/05 00:43:15;;;;;;;5.03;3.25;;;18.30;99.90;;;;;;5022484;28;20121;-70
2022/09/05 00:45:42;;;;;;;6.28;3.10;;;18.30;99.90;;;;;;5010399;28;20095;-70
2022/09/05 00:48:53;;;;;;;6.10;3.42;;;18.20;99.90;;;;;;5011253;28;20044;-70
2022/09/05 00:51:24;;;;;;;6.10;3.08;;;18.20;99.90;;;;;;4936791;28;20125;-70
2022/09/05 00:54:34;;;;;;;4.22;3.40;;;18.20;99.90;;;;;;5007548;28;20161;-70
2022/09/05 00:57:29;;;;;;;6.85;3.10;;;18.20;99.90;;;;;;5007801;28;20049;-70
2022/09/05 01:00:16;;;;;;;6.45;3.45;;;18.10;99.90;;;;;;5010222;28;20037;-70
2022/09/05 01:02:52;;;;;;;8.52;3.67;;;18.10;99.90;;;;;;5004487;28;20164;-70
2022/09/05 01:05:37;;;;;;;5.28;3.45;;;18.00;99.90;;;;;;5010352;28;20060;-70
2022/09/05 01:08:36;;;;;;;4.80;3.70;;;18.00;99.90;;;;;;5008516;28;20087;-70
2022/09/05 01:11:04;;;;;;;5.45;3.42;;;18.00;99.90;;;;;;5009176;28;20038;-70
2022/09/05 01:13:48;;;;;;;8.10;3.55;;;18.00;99.90;;;;;;5006901;28;20041;-70
2022/09/05 01:16:56;;;;;;;4.47;3.53;;;17.90;99.90;;;;;;4991502;28;20048;-70
2022/09/05 01:20:00;;;;;;;3.85;3.42;;;17.90;99.90;;;;;;5005201;28;20173;-70
2022/09/05 01:22:34;;;;;;;5.45;3.58;;;18.00;99.90;;;;;;5005164;28;20045;-70
2022/09/05 01:25:09;;;;;;;5.93;3.42;;;18.00;99.90;;;;;;5009077;28;20056;-70
2022/09/05 01:28:07;;;;;;;5.40;3.67;;;17.90;99.90;;;;;;5007189;28;20041;-70
2022/09/05 01:30:44;;;;;;;8.75;4.18;;;17.90;99.90;;;;;;5011263;28;20029;-70
2022/09/05 01:33:32;;;;;;;3.90;3.50;;;17.90;99.90;;;;;;5009724;28;20056;-70
2022/09/05 01:36:07;;;;;;;5.10;3.40;;;17.90;99.90;;;;;;5009280;28;20038;-70
2022/09/05 01:39:03;;;;;;;6.95;3.38;;;17.80;99.90;;;;;;4990083;28;20037;-70
2022/09/05 01:41:48;;;;;;;5.18;3.55;;;17.80;99.90;;;;;;5002937;28;20054;-70
2022/09/05 01:44:28;;;;;;;7.10;3.70;;;17.80;99.90;;;;;;5011928;28;20094;-70
2022/09/05 01:47:26;;;;;;;5.03;3.92;;;17.70;99.90;;;;;;5006891;28;20045;-70
2022/09/05 01:50:06;;;;;;;5.18;4.30;;;17.70;99.90;;;;;;5021995;28;20040;-70
2022/09/05 01:52:58;;;;;;;5.18;3.90;;;17.70;99.90;;;;;;5006458;28;20037;-70
2022/09/05 01:56:01;;;;;;;6.20;4.25;;;17.60;99.90;;;;;;5001342;28;20566;-70
2022/09/05 01:58:54;;;;;;;7.72;4.15;;;17.60;99.90;;;;;;5008707;28;20038;-72
2022/09/05 02:01:46;;;;;;;5.50;3.90;;;17.60;99.90;;;;;;5010891;28;20140;-72
2022/09/05 02:04:51;;;;;;;4.40;4.00;;;17.50;99.90;;;;;;5006107;28;20056;-72
2022/09/05 02:07:29;;;;;;;8.27;4.18;;;17.60;99.90;;;;;;5007442;28;20045;-72
2022/09/05 02:10:13;;;;;;;8.60;4.10;;;17.50;99.90;;;;;;5013355;28;20050;-72
2022/09/05 02:13:08;;;;;;;5.47;4.05;;;17.50;99.90;;;;;;5008938;28;20493;-72
2022/09/05 02:15:45;;;;;;;7.93;4.05;;;17.50;99.90;;;;;;4991265;28;20041;-72
2022/09/05 02:18:21;;;;;;;6.40;3.63;;;17.50;99.90;;;;;;5004392;28;20048;-72
2022/09/05 02:20:56;;;;;;;8.13;3.70;;;17.50;99.90;;;;;;5007609;28;20037;-72
2022/09/05 02:23:42;;;;;;;4.85;3.60;;;17.50;99.90;;;;;;5024059;28;20046;-72
2022/09/05 02:26:24;;;;;;;6.35;4.22;;;17.50;99.90;;;;;;5007969;28;20040;-72
2022/09/05 02:29:28;;;;;;;3.97;3.58;;;17.50;99.90;;;;;;5010408;28;20157;-72
2022/09/05 02:32:18;;;;;;;7.85;4.28;;;17.50;99.90;;;;;;5021667;28;20038;-72
2022/09/05 02:35:02;;;;;;;5.07;3.70;;;17.40;99.90;;;;;;5006289;28;20037;-72
2022/09/05 02:37:42;;;;;;;6.78;3.58;;;17.40;99.90;;;;;;5008077;28;20075;-72
2022/09/05 02:40:17;;;;;;;6.80;3.88;;;17.40;99.90;;;;;;5008812;28;20559;-72
2022/09/05 02:42:45;;;;;;;4.82;3.80;;;17.40;99.90;;;;;;5020606;28;20037;-72
2022/09/05 02:45:45;;;;;;;5.22;4.00;;;17.40;99.90;;;;;;5006513;28;20045;-72
2022/09/05 02:48:49;;;;;;;7.07;4.07;;;17.30;99.90;;;;;;5003708;28;20195;-72
2022/09/05 02:51:28;;;;;;;4.75;4.20;;;17.30;99.90;;;;;;5006489;28;20048;-72
2022/09/05 02:54:02;;;;;;;6.13;4.38;;;17.30;99.90;;;;;;5006468;28;20033;-72
2022/09/05 02:56:31;;;;;;;5.38;3.83;;;17.30;99.90;;;;;;5007079;28;20065;-72
2022/09/05 02:59:08;;;;;;;4.85;4.35;;;17.20;99.90;;;;;;5009108;28;20055;-72
2022/09/05 03:01:59;;;;;;;6.63;5.28;;;17.20;99.90;;;;;;5012138;28;20048;-72
2022/09/05 03:04:32;;;;;;;5.70;4.80;;;17.20;99.90;;;;;;4991891;28;20124;-72
2022/09/05 03:07:05;;;;;;;;;;;17.20;99.90;;;;;;5006929;28;20048;-72
2022/09/05 03:09:45;;;;;;;6.05;4.32;;;17.10;99.90;;;;;;5027817;28;19921;-72
2022/09/05 03:12:48;;;;;;;9.65;4.55;;;17.10;99.90;;;;;;4992670;28;20492;-72
2022/09/05 03:15:49;;;;;;;5.13;4.50;;;17.10;99.90;;;;;;5005050;28;20481;-72
2022/09/05 03:18:53;;;;;;;6.28;4.80;;;17.10;99.90;;;;;;5003680;28;20401;-72
2022/09/05 03:21:55;;;;;;;5.13;4.50;;;17.00;99.90;;;;;;5006639;28;20059;-72
2022/09/05 03:24:21;;;;;;;;;;;17.00;99.90;;;;;;5004950;28;20118;-72
2022/09/05 03:27:00;;;;;;;5.35;4.78;;;17.00;99.90;;;;;;4991676;28;22077;-72
2022/09/05 03:30:00;;;;;;;9.95;4.65;;;17.00;99.90;;;;;;5009483;28;21738;-72
2022/09/05 03:32:47;;;;;;;9.00;4.85;;;17.00;99.90;;;;;;5007229;28;20497;-72
2022/09/05 03:35:36;;;;;;;7.25;5.00;;;17.00;99.90;;;;;;5006804;28;20681;-72
2022/09/05 03:38:41;;;;;;;6.65;4.95;;;16.90;99.90;;;;;;5009195;28;20191;-72
2022/09/05 03:41:25;;;;;;;5.60;5.10;;;16.90;99.90;;;;;;5001502;28;20396;-72
2022/09/05 03:44:13;;;;;;;5.35;4.78;;;16.90;99.90;;;;;;5005653;28;20382;-72
2022/09/05 03:46:55;;;;;;;7.15;4.80;;;16.90;99.90;;;;;;5002909;28;20429;-72
2022/09/05 03:49:21;;;;;;;7.88;5.18;;;16.90;99.90;;;;;;4989718;28;20441;-72
2022/09/05 03:52:06;;;;;;;5.63;4.65;;;16.90;99.90;;;;;;5006564;28;20044;-72
2022/09/05 03:55:08;;;;;;;5.72;5.22;;;16.80;99.90;;;;;;5007186;28;20044;-72
2022/09/05 03:57:58;;;;;;;6.97;5.05;;;16.80;99.90;;;;;;5008626;28;20392;-72
2022/09/05 04:00:32;;;;;;;9.70;5.30;;;16.80;99.90;;;;;;5004957;28;20370;-71
2022/09/05 04:03:22;;;;;;;5.88;5.20;;;16.70;99.90;;;;;;5005889;28;20405;-72
2022/09/05 04:06:10;;;;;;;5.95;5.35;;;16.70;99.90;;;;;;4991440;28;20515;-72
2022/09/05 04:09:18;;;;;;;12.57;5.40;;;16.60;99.90;;;;;;5005408;28;20034;-72
2022/09/05 04:11:51;;;;;;;8.48;5.75;;;16.50;99.90;;;;;;5006395;28;20450;-71
2022/09/05 04:14:23;;;;;;;7.47;5.20;;;16.50;99.90;;;;;;5005844;28;20080;-72
2022/09/05 04:16:54;;;;;;;7.18;5.60;;;16.40;99.90;;;;;;5004649;28;20071;-72
2022/09/05 04:19:51;;;;;;;6.05;5.45;;;16.50;99.90;;;;;;5001741;28;20649;-72
2022/09/05 04:22:35;;;;;;;8.02;5.65;;;16.40;99.90;;;;;;5006715;28;20074;-72
2022/09/05 04:25:32;;;;;;;6.85;5.97;;;16.40;99.90;;;;;;5006341;28;20041;-72
2022/09/05 04:28:31;;;;;;;8.93;6.30;;;16.40;99.90;;;;;;5006001;28;20430;-72
2022/09/05 04:31:07;;;;;;;6.53;5.70;;;16.40;99.90;;;;;;5000926;28;20558;-72
2022/09/05 04:34:01;;;;;;;7.93;5.97;;;16.30;99.90;;;;;;5012142;28;20397;-72
2022/09/05 04:36:32;;;;;;;7.88;6.10;;;16.30;99.90;;;;;;5008388;28;20041;-72
2022/09/05 04:39:06;;;;;;;7.30;6.25;;;16.20;99.90;;;;;;5010114;28;20778;-72
2022/09/05 04:41:37;;;;;;;6.75;5.85;;;16.20;99.90;;;;;;4986968;28;20068;-72
2022/09/05 04:44:13;;;;;;;7.95;5.95;;;16.20;99.90;;;;;;4987891;28;20038;-72
2022/09/05 04:46:45;;;;;;;8.95;6.25;;;16.20;99.90;;;;;;5003285;28;20384;-72
2022/09/05 04:49:17;;;;;;;;;;;16.20;99.90;;;;;;4998747;28;20137;-72
2022/09/05 04:52:21;;;;;;;6.75;6.05;;;16.20;99.90;;;;;;5005184;28;19924;-72
2022/09/05 04:55:19;;;;;;;9.40;6.55;;;16.20;99.90;;;;;;4978399;28;20053;-72
2022/09/05 04:57:59;;;;;;;7.18;5.88;;;16.10;99.90;;;;;;4949383;28;20128;-72
2022/09/05 05:00:45;;;;;;;10.40;6.25;;;16.10;99.90;;;;;;5026108;28;20375;-72
2022/09/05 05:03:23;;;;;;;11.25;6.47;;;16.10;99.90;;;;;;5009087;28;20584;-72
2022/09/05 05:06:01;;;;;;;8.77;6.10;;;16.10;99.90;;;;;;5013398;28;20449;-72
2022/09/05 05:08:39;;;;;;;7.55;6.38;;;16.10;99.90;;;;;;4998589;28;20033;-72
2022/09/05 05:11:37;;;;;;;7.25;6.45;;;16.10;99.90;;;;;;4980889;28;20673;-72
2022/09/05 05:14:24;;;;;;;8.50;6.63;;;16.10;99.90;;;;;;5007273;28;20468;-71
2022/09/05 05:17:07;;;;;;;7.80;6.50;;;16.10;99.90;;;;;;5006492;28;20572;-72
2022/09/05 05:19:44;;;;;;;10.65;6.15;;;16.00;99.90;;;;;;5005692;28;20522;-72
2022/09/05 05:22:15;;;;;;;7.75;6.88;;;16.00;99.90;;;;;;5007332;28;20104;-72
2022/09/05 05:24:49;;;;;;;8.30;6.90;;;16.00;99.90;;;;;;4993224;28;20402;-72
2022/09/05 05:27:15;;;;;;;12.13;6.53;;;16.00;99.90;;;;;;5006282;28;20045;-72
2022/09/05 05:29:42;;;;;;;7.60;6.78;;;16.00;99.90;;;;;;4993668;28;20037;-72
2022/09/05 05:32:20;;;;;;;11.18;7.38;;;16.00;99.90;;;;;;4978111;28;20160;-72
2022/09/05 05:34:51;;;;;;;8.18;7.30;;;16.00;99.90;;;;;;5012745;28;20485;-72
2022/09/05 05:37:20;;;;;;;13.55;7.68;;;16.00;99.90;;;;;;5011920;28;20041;-72
2022/09/05 05:39:57;;;;;;;22.52;8.45;;;16.00;99.90;;;;;;5007587;28;20538;-72
2022/09/05 05:42:23;;;;;;;15.05;7.53;;;16.00;99.90;;;;;;5026452;28;20187;-72
2022/09/05 05:44:55;;;;;;;13.30;7.35;;;16.00;99.90;;;;;;5010045;28;20855;-72
2022/09/05 05:47:40;;;;;;;14.18;7.50;;;16.00;99.90;;;;;;5004595;28;20516;-72
2022/09/05 05:50:31;;;;;;;10.77;6.40;;;16.00;99.90;;;;;;5018038;28;20068;-72
2022/09/05 05:53:28;;;;;;;10.05;7.15;;;16.10;99.90;;;;;;5010172;28;20043;-72
2022/09/05 05:56:28;;;;;;;14.18;7.70;;;16.10;99.90;;;;;;5012149;28;20551;-72
2022/09/05 05:59:27;;;;;;;12.38;7.70;;;16.10;99.90;;;;;;5008332;28;20080;-72
2022/09/05 06:02:14;;;;;;;10.00;7.60;;;16.20;99.90;;;;;;5008588;28;20478;-72
2022/09/05 06:04:40;;;;;;;15.70;8.00;;;16.20;99.90;;;;;;4987503;28;20075;-72
2022/09/05 06:07:33;;;;;;;14.75;7.80;;;16.30;99.90;;;;;;5004933;28;20045;-72
2022/09/05 06:10:24;;;;;;;10.65;7.88;;;16.30;99.90;;;;;;5004840;28;20056;-72
2022/09/05 06:13:06;;;;;;;11.15;8.25;;;16.40;99.90;;;;;;5007232;28;20038;-72
2022/09/05 06:15:43;;;;;;;12.18;7.38;;;16.50;99.90;;;;;;4991662;28;20536;-72
2022/09/05 06:18:36;;;;;;;9.38;7.45;;;16.50;99.90;;;;;;4982305;28;20133;-72
2022/09/05 06:21:08;;;;;;;9.95;6.95;;;16.50;99.90;;;;;;5006230;28;20570;-72
2022/09/05 06:23:55;;;;;;;8.40;7.17;;;16.60;99.90;;;;;;4998659;28;20493;-72
2022/09/05 06:26:31;;;;;;;9.95;7.70;;;16.60;99.90;;;;;;4989069;28;20050;-72
2022/09/05 06:29:26;;;;;;;8.77;7.40;;;16.70;99.90;;;;;;5013952;28;20512;-72
2022/09/05 06:32:20;;;;;;;8.38;6.85;;;16.70;99.90;;;;;;5015856;28;20029;-71
2022/09/05 06:35:17;;;;;;;8.25;7.28;;;16.80;99.90;;;;;;5012664;28;20516;-72
2022/09/05 06:37:50;;;;;;;8.07;7.25;;;16.80;99.90;;;;;;5004785;28;20580;-73
2022/09/05 06:40:34;;;;;;;8.98;7.78;;;16.90;99.90;;;;;;5018543;28;20049;-72
2022/09/05 06:43:18;;;;;;;8.10;6.88;;;16.90;99.90;;;;;;5014877;28;20398;-72
2022/09/05 06:46:26;;;;;;;7.53;6.93;;;17.10;99.90;;;;;;5010685;28;20116;-72
2022/09/05 06:49:04;;;;;;;10.27;7.82;;;17.10;99.90;;;;;;4997447;28;20054;-72
2022/09/05 06:51:40;;;;;;;8.20;7.05;;;17.30;99.90;;;;;;4995384;28;20752;-72
2022/09/05 06:54:36;;;;;;;8.18;6.70;;;17.30;99.90;;;;;;5011674;28;20513;-72
2022/09/05 06:57:29;;;;;;;8.23;6.97;;;17.50;99.90;;;;;;4983536;28;20056;-72
2022/09/05 07:00:12;;;;;;;13.00;7.45;;;17.50;99.90;;;;;;4989855;28;20037;-72
2022/09/05 07:03:06;;;;;;;9.60;7.53;;;17.70;99.90;;;;;;5005637;28;20041;-73
2022/09/05 07:05:38;;;;;;;9.63;6.53;;;17.70;99.90;;;;;;5007633;28;20065;-72
2022/09/05 07:08:31;;;;;;;10.23;7.10;;;17.90;99.90;;;;;;5008378;28;20640;-72
2022/09/05 07:11:19;;;;;;;11.68;6.97;;;17.90;99.90;;;;;;5005041;28;20061;-72
2022/09/05 07:14:15;;;;;;;9.02;6.43;;;18.00;99.90;;;;;;5008391;28;20482;-72
2022/09/05 07:16:49;;;;;;;11.32;6.63;;;18.10;99.90;;;;;;5007444;28;20518;-72
2022/09/05 07:19:28;;;;;;;19.92;6.45;;;18.30;99.90;;;;;;5005375;28;20523;-72
2022/09/05 07:22:11;;;;;;;12.15;6.25;;;18.40;99.90;;;;;;5027511;28;21922;-72
2022/09/05 07:24:45;;;;;;;8.93;6.30;;;18.60;99.90;;;;;;5007675;28;20489;-72
2022/09/05 07:27:33;;;;;;;10.00;6.53;;;18.80;99.90;;;;;;4989952;28;20536;-72
2022/09/05 07:29:59;;;;;;;7.90;6.43;;;19.00;99.90;;;;;;5003266;28;20115;-72
2022/09/05 07:32:28;;;;;;;9.20;6.20;;;19.30;99.90;;;;;;5004970;28;20504;-72
2022/09/05 07:34:56;;;;;;;10.48;6.30;;;19.50;99.90;;;;;;5006582;28;20495;-72
2022/09/05 07:37:27;;;;;;;10.15;6.07;;;19.70;99.90;;;;;;5006114;28;20189;-72
2022/09/05 07:39:57;;;;;;;8.23;5.97;;;19.90;99.90;;;;;;5006455;28;20536;-73
2022/09/05 07:42:50;;;;;;;14.00;5.78;;;20.20;99.90;;;;;;5008172;28;20057;-72
2022/09/05 07:45:28;;;;;;;8.40;5.72;;;20.40;99.90;;;;;;5001313;28;20037;-73
2022/09/05 07:48:02;;;;;;;9.63;6.03;;;20.60;99.90;;;;;;5021224;28;20561;-72
2022/09/05 07:50:30;;;;;;;8.52;6.05;;;20.70;99.90;;;;;;5010421;28;20127;-73
2022/09/05 07:52:59;;;;;;;13.48;5.78;;;20.80;99.90;;;;;;5009788;28;20393;-72
2022/09/05 07:55:35;;;;;;;11.85;5.63;;;20.90;99.90;;;;;;5022535;28;20069;-73
2022/09/05 07:58:06;;;;;;;10.00;5.40;;;21.00;99.90;;;;;;5005122;28;20091;-73
2022/09/05 08:00:34;;;;;;;8.82;5.13;;;21.20;99.90;;;;;;5007207;28;20140;-73
2022/09/05 08:03:12;;;;;;;7.95;5.10;;;21.30;99.90;;;;;;5002758;28;20042;-73
2022/09/05 08:05:42;;;;;;;12.77;5.00;;;21.50;99.90;;;;;;5007016;28;20699;-72
2022/09/05 08:08:18;;;;;;;9.25;5.03;;;21.60;99.90;;;;;;5004325;28;20042;-72
2022/09/05 08:11:10;;;;;;;7.45;5.30;;;21.70;99.90;;;;;;4998836;28;20046;-73
2022/09/05 08:13:40;;;;;;;11.80;5.35;;;21.90;99.90;;;;;;4987916;28;20513;-73
2022/09/05 08:16:08;;;;;;;5.70;5.18;;;22.00;99.90;;;;;;5007712;28;20056;-72
2022/09/05 08:18:44;;;;;;;5.93;5.32;;;22.10;99.90;;;;;;5008127;28;20111;-73
2022/09/05 08:21:24;;;;;;;9.65;5.43;;;22.20;99.90;;;;;;5001615;28;20046;-72
2022/09/05 08:24:23;;;;;;;11.43;5.85;;;22.30;99.90;;;;;;5001791;28;20049;-73
2022/09/05 08:27:03;;;;;;;6.70;4.72;;;22.40;99.90;;;;;;5001411;28;20115;-73
2022/09/05 08:29:40;;;;;;;10.63;5.18;;;22.50;99.90;;;;;;4980614;28;20124;-73
2022/09/05 08:32:23;;;;;;;8.32;4.75;;;22.70;99.90;;;;;;5003965;28;20052;-73
2022/09/05 08:35:06;;;;;;;5.68;4.18;;;22.80;99.90;;;;;;5007293;28;20135;-73
2022/09/05 08:37:32;;;;;;;5.05;4.38;;;23.00;99.90;;;;;;5016755;28;20099;-73
2022/09/05 08:40:06;;;;;;;6.85;4.45;;;23.10;99.90;;;;;;5009269;28;20444;-73
2022/09/05 08:42:40;;;;;;;6.72;4.45;;;23.20;99.90;;;;;;5007107;28;20060;-73
2022/09/05 08:45:11;;;;;;;9.63;4.10;;;23.40;99.90;;;;;;5005650;28;20038;-73
2022/09/05 08:48:09;;;;;;;10.68;4.18;;;23.50;99.90;;;;;;5007613;28;20182;-73
2022/09/05 08:50:42;;;;;;;8.75;3.63;;;23.60;99.90;;;;;;5011606;28;20124;-73
2022/09/05 08:53:45;;;;;;;18.25;3.95;;;23.70;99.90;;;;;;5008160;28;20037;-73
2022/09/05 08:56:17;;;;;;;12.52;3.90;;;23.90;99.90;;;;;;5005910;28;20065;-73
2022/09/05 08:58:50;;;;;;;;;;;23.90;99.90;;;;;;5010825;28;20045;-73
2022/09/05 09:01:58;;;;;;;12.05;3.92;;;24.10;99.90;;;;;;5012716;28;19921;-73
2022/09/05 09:05:06;;;;;;;10.38;3.53;;;24.30;99.90;;;;;;5005960;28;20190;-73
2022/09/05 09:07:55;;;;;;;11.25;4.03;;;24.50;99.90;;;;;;5018147;28;20048;-73
2022/09/05 09:10:53;;;;;;;5.03;3.53;;;24.70;99.20;;;;;;5006865;28;20723;-73
2022/09/05 09:13:31;;;;;;;7.88;3.38;;;24.80;98.90;;;;;;5006721;28;20385;-72
2022/09/05 09:16:05;;;;;;;6.60;3.38;;;25.00;98.80;;;;;;5019349;28;20030;-77
2022/09/05 09:18:57;;;;;;;89.80;31.65;;;25.20;98.40;;;;;;5001331;28;20409;-76
2022/09/05 09:21:46;;;;;;;35.47;13.50;;;25.30;98.70;;;;;;5006566;28;20172;-76
2022/09/05 09:24:36;;;;;;;7.47;4.22;;;25.40;98.70;;;;;;5009431;28;20042;-77
2022/09/05 09:27:15;;;;;;;6.85;3.25;;;25.50;97.70;;;;;;4989869;28;20038;-77
2022/09/05 09:29:41;;;;;;;5.93;3.60;;;25.60;98.20;;;;;;5008566;28;20459;-77
2022/09/05 09:32:15;;;;;;;6.15;3.30;;;25.70;97.50;;;;;;5007948;28;20034;-77
2022/09/05 09:35:07;;;;;;;4.20;3.20;;;25.70;97.40;;;;;;5007775;28;20392;-77
2022/09/05 09:38:05;;;;;;;36.10;13.27;;;25.80;97.40;;;;;;5005038;28;20677;-76
2022/09/05 09:41:09;;;;;;;10.00;3.38;;;25.90;96.80;;;;;;5005910;28;20296;-77
2022/09/05 09:44:27;;;;;;;5.93;3.45;;;26.00;96.00;;;;;;5004213;28;20075;-73
2022/09/05 09:46:53;;;;;;;8.63;3.47;;;26.20;95.40;;;;;;4989856;28;20547;-73
2022/09/05 09:49:34;;;;;;;5.28;3.10;;;26.50;95.10;;;;;;5005326;28;20721;-73
2022/09/05 09:52:24;;;;;;;4.40;3.25;;;26.80;95.10;;;;;;5005137;28;20041;-73
2022/09/05 10:08:28;;;;;;;6.13;2.80;;;28.00;91.80;;;;;;5832739;22;20048;-70
2022/09/05 10:11:38;;;;;;;6.80;3.10;;;28.20;90.80;;;;;;5050432;28;20118;-70
2022/09/05 10:16:45;;;;;;;7.10;3.00;;;28.50;89.60;;;;;;5820952;22;20503;-71
2022/09/05 10:19:59;;;;;;;10.73;2.70;;;28.60;89.10;;;;;;5066178;28;20040;-71
2022/09/05 10:22:24;;;;;;;9.30;2.88;;;28.70;86.90;;;;;;5069800;28;20068;-71
2022/09/05 10:25:19;;;;;;;4.90;2.35;;;28.70;88.30;;;;;;5046810;28;20059;-71
2022/09/05 10:27:52;;;;;;;5.90;2.40;;;28.70;87.20;;;;;;5032350;28;20036;-73
2022/09/05 10:30:49;;;;;;;3.10;2.00;;;28.90;85.80;;;;;;5096664;22;20098;-72
2022/09/05 10:33:46;;;;;;;5.00;2.00;;;29.00;82.80;;;;;;5035294;28;20456;-72
2022/09/05 10:36:26;;;;;;;5.95;1.98;;;29.20;83.30;;;;;;4999417;28;20420;-72
2022/09/05 10:39:00;;;;;;;4.93;2.20;;;29.40;84.40;;;;;;5022935;28;20405;-72
2022/09/05 10:41:51;;;;;;;7.75;2.05;;;29.40;84.40;;;;;;5035033;28;20519;-72
2022/09/05 10:44:32;;;;;;;9.73;2.38;;;29.60;83.30;;;;;;5033607;28;20679;-72
2022/09/05 10:47:17;;;;;;;2.63;1.87;;;29.80;81.30;;;;;;5027615;28;20435;-72
2022/09/05 10:49:46;;;;;;;3.83;1.95;;;30.00;80.90;;;;;;5031394;28;20810;-72
2022/09/05 10:52:24;;;;;;;4.32;2.08;;;30.20;77.70;;;;;;5033277;28;20594;-72
2022/09/05 10:58:02;;;;;;;4.25;1.70;;;30.40;76.40;;;;;;5991978;22;20387;-72
2022/09/05 11:00:51;;;;;;;4.07;1.95;;;30.60;76.60;;;;;;5027117;28;20104;-73
2022/09/05 11:03:54;;;;;;;2.97;1.52;;;30.80;75.30;;;;;;5026963;28;20137;-72
2022/09/05 11:06:53;;;;;;;2.22;1.50;;;30.90;72.80;;;;;;5020970;28;20132;-73
2022/09/05 11:09:51;;;;;;;6.68;1.40;;;31.20;73.70;;;;;;5006447;28;20036;-73
2022/09/05 11:12:46;;;;;;;4.28;1.45;;;31.40;74.60;;;;;;5002830;28;20041;-72
2022/09/05 11:15:37;;;;;;;1.42;1.33;;;31.70;71.80;;;;;;4982807;28;20034;-72
2022/09/05 11:18:14;;;;;;;2.20;1.40;;;32.00;69.90;;;;;;4974150;28;20042;-72
2022/09/05 11:21:07;;;;;;;4.72;1.85;;;32.10;69.10;;;;;;4982563;28;20049;-72
2022/09/05 11:23:54;;;;;;;1.80;1.30;;;32.20;68.10;;;;;;5017550;28;20493;-72
2022/09/05 11:26:36;;;;;;;2.13;1.42;;;32.40;66.80;;;;;;4975662;28;20037;-72
2022/09/05 11:29:16;;;;;;;2.53;1.40;;;32.40;63.40;;;;;;4995830;28;20034;-72
2022/09/05 11:32:16;;;;;;;4.80;1.70;;;32.50;64.90;;;;;;5024333;28;20041;-72
2022/09/05 11:34:50;;;;;;;2.83;1.50;;;32.70;62.40;;;;;;5028443;28;20037;-72
2022/09/05 11:37:49;;;;;;;3.38;1.60;;;32.70;63.20;;;;;;5022642;28;20095;-72
2022/09/05 11:40:38;;;;;;;4.10;1.70;;;32.90;61.70;;;;;;5006259;28;20045;-72
2022/09/05 11:43:28;;;;;;;2.85;1.58;;;33.10;62.40;;;;;;5026572;28;20042;-72
2022/09/05 11:46:17;;;;;;;3.42;1.50;;;33.10;61.20;;;;;;5022807;28;20443;-72
2022/09/05 11:48:57;;;;;;;3.65;1.60;;;33.10;59.80;;;;;;5022367;28;20117;-72
2022/09/05 11:52:01;;;;;;;5.53;1.67;;;33.00;60.80;;;;;;5007600;28;20045;-72
2022/09/05 11:54:38;;;;;;;5.03;1.45;;;32.80;59.50;;;;;;5015349;28;20379;-72
2022/09/05 11:57:25;;;;;;;4.80;1.58;;;32.40;61.30;;;;;;5012712;28;20405;-72
2022/09/05 12:00:17;;;;;;;4.75;1.50;;;32.40;60.70;;;;;;5021130;28;20052;-72
2022/09/05 12:03:18;;;;;;;3.85;1.50;;;32.40;61.20;;;;;;5011075;28;20042;-72
2022/09/05 12:05:53;;;;;;;5.00;1.63;;;32.50;61.70;;;;;;5024860;28;20038;-72
2022/09/05 12:08:39;;;;;;;2.33;1.30;;;32.70;60.00;;;;;;5032886;28;20041;-72
2022/09/05 12:11:48;;;;;;;2.17;1.65;;;32.90;59.60;;;;;;5033844;28;20087;-72
2022/09/05 12:14:32;;;;;;;3.35;1.60;;;33.10;58.40;;;;;;5033709;28;20041;-72
2022/09/05 12:17:09;;;;;;;3.80;1.70;;;32.90;58.10;;;;;;5017463;28;20401;-72
2022/09/05 12:19:43;;;;;;;5.60;1.70;;;32.90;56.00;;;;;;5030123;28;20034;-72
2022/09/05 12:22:20;;;;;;;3.95;1.33;;;33.00;58.00;;;;;;5001944;28;20037;-72
2022/09/05 12:24:53;;;;;;;3.78;1.70;;;33.10;57.30;;;;;;5009986;28;20053;-72
2022/09/05 12:27:23;;;;;;;2.53;1.65;;;33.40;56.60;;;;;;5029244;28;20048;-72
2022/09/05 12:29:54;;;;;;;6.78;1.48;;;33.60;54.30;;;;;;5035402;28;20030;-72
2022/09/05 12:32:24;;;;;;;;;;;33.70;58.00;;;;;;5035403;28;20247;-72
2022/09/05 12:34:58;;;;;;;7.18;1.50;;;33.80;57.50;;;;;;5025868;28;19956;-72
2022/09/05 12:37:26;;;;;;;5.63;1.20;;;33.90;57.20;;;;;;5010531;28;20056;-72
2022/09/05 12:40:08;;;;;;;4.25;1.20;;;34.00;56.00;;;;;;5002872;28;20037;-72
2022/09/05 12:42:43;;;;;;;4.93;1.50;;;34.20;55.00;;;;;;5021217;28;20033;-72
2022/09/05 12:45:40;;;;;;;5.22;1.60;;;34.30;53.60;;;;;;5015149;28;20121;-72
2022/09/05 12:48:34;;;;;;;3.00;1.20;;;34.30;54.40;;;;;;5019504;28;20037;-72
2022/09/05 12:51:10;;;;;;;3.15;1.48;;;34.40;54.20;;;;;;5038126;28;20049;-72
2022/09/05 12:54:05;;;;;;;5.32;1.60;;;34.50;54.80;;;;;;5030516;28;20037;-72
2022/09/05 12:56:58;;;;;;;3.08;1.33;;;34.30;54.30;;;;;;5013461;28;20049;-72
2022/09/05 12:59:28;;;;;;;3.38;1.58;;;34.10;54.70;;;;;;5004892;28;20076;-72
2022/09/05 13:02:02;;;;;;;1.85;1.30;;;34.10;53.70;;;;;;5036324;28;20069;-72
2022/09/05 13:04:39;;;;;;;3.40;1.52;;;33.70;51.70;;;;;;5029716;28;20029;-72
2022/09/05 13:07:19;;;;;;;4.30;1.50;;;33.10;53.40;;;;;;5032578;28;20037;-72
2022/09/05 13:09:58;;;;;;;2.20;1.30;;;32.90;53.40;;;;;;5036209;28;20045;-72
2022/09/05 13:25:26;;;;;;;3.25;1.30;;;32.70;55.90;;;;;;5073175;23;20056;-72
2022/09/05 13:28:02;;;;;;;3.88;1.30;;;32.70;54.90;;;;;;5033430;28;20128;-71
2022/09/05 13:30:31;;;;;;;2.88;1.20;;;32.70;56.30;;;;;;5032180;28;20037;-71
2022/09/05 13:33:23;;;;;;;2.15;1.40;;;32.80;55.60;;;;;;5032957;28;20033;-72
2022/09/05 13:36:04;;;;;;;2.95;1.30;;;32.90;55.20;;;;;;5030408;28;20041;-71
2022/09/05 13:38:45;;;;;;;2.88;1.52;;;33.00;52.80;;;;;;5025868;28;20056;-72
2022/09/05 13:41:35;;;;;;;1.20;1.10;;;33.00;55.30;;;;;;5027004;28;20044;-72
2022/09/05 13:44:24;;;;;;;3.65;1.40;;;33.40;57.20;;;;;;5033684;28;20057;-72
2022/09/05 13:47:39;;;;;;;2.13;1.40;;;33.90;54.10;;;;;;5030708;28;20059;-72
2022/09/05 13:50:26;;;;;;;3.22;1.25;;;34.10;53.70;;;;;;4994505;28;20107;-72
2022/09/05 13:52:51;;;;;;;3.58;1.25;;;34.50;54.00;;;;;;5040172;28;20457;-72
2022/09/05 13:55:54;;;;;;;9.10;1.50;;;34.50;53.00;;;;;;5040491;28;20076;-72
2022/09/05 13:58:20;;;;;;;1.83;1.23;;;34.40;52.50;;;;;;4975110;28;20108;-73
2022/09/05 14:01:25;;;;;;;4.30;1.50;;;34.20;53.80;;;;;;5025830;28;20420;-73
2022/09/05 14:04:19;;;;;;;7.80;1.50;;;34.10;52.10;;;;;;5026921;28;20079;-73
2022/09/05 14:07:13;;;;;;;11.55;1.58;;;33.60;50.40;;;;;;5036072;28;20037;-75
2022/09/05 14:09:45;;;;;;;4.15;1.30;;;33.40;53.10;;;;;;5022472;28;20519;-73
2022/09/05 14:12:33;;;;;;;4.78;1.40;;;33.50;55.50;;;;;;5052744;28;20124;-73
2022/09/05 14:15:04;;;;;;;4.53;1.48;;;33.40;53.60;;;;;;5030559;28;20060;-73
2022/09/05 14:17:36;;;;;;;2.45;1.40;;;33.30;55.70;;;;;;5032680;28;20497;-73
2022/09/05 14:23:04;;;;;;;4.32;1.50;;;32.80;58.10;;;;;;5027461;28;20536;-73
2022/09/05 14:25:38;;;;;;;3.20;1.30;;;32.90;56.00;;;;;;5060698;28;20511;-73
2022/09/05 14:28:10;;;;;;;2.45;1.20;;;33.20;57.40;;;;;;5017918;28;20040;-73
2022/09/05 14:30:51;;;;;;;2.22;1.35;;;33.60;54.60;;;;;;5013372;28;20521;-73
2022/09/05 14:33:27;;;;;;;;;;;34.00;54.40;;;;;;5051298;28;20511;-73
2022/09/05 14:36:06;;;;;;;2.95;1.30;;;34.50;52.70;;;;;;5016368;28;20361;-73
2022/09/05 14:38:57;;;;;;;3.33;1.17;;;34.80;52.50;;;;;;5032702;28;20535;-73
2022/09/05 14:41:58;;;;;;;3.87;1.17;;;35.20;53.90;;;;;;5025427;28;20131;-71
2022/09/05 14:45:03;;;;;;;4.15;1.25;;;35.50;52.00;;;;;;4991302;28;20060;-73
2022/09/05 14:47:58;;;;;;;2.00;1.13;;;35.70;50.90;;;;;;4996788;28;20068;-73